Time;durP1;ratioP1;P1;durP2;ratioP2;P2;SDS_P1;SDS_P2;PMS_P1;PMS_P2;Temp;Humidity;BMP_temperature;BMP_pressure;BME280_temperature;BME280_humidity;BME280_pressure;Samples;Min_cycle;Max_cycle;Signal;HPM_P1;HPM_P2
2022/05/20 00:01:46;;;;;;;11.90;6.65;;;;;;;9.58;64.46;99550.09;4331306;81;20959;-80
2022/05/20 00:07:48;;;;;;;13.08;6.03;;;;;;;9.50;64.81;99554.40;4320978;80;20999;-80
2022/05/20 00:13:49;;;;;;;9.15;5.42;;;;;;;9.45;65.32;99543.73;4321449;81;21015;-80
2022/05/20 00:19:50;;;;;;;11.57;6.17;;;;;;;9.41;66.03;99545.00;4321219;81;21047;-80
2022/05/20 00:25:53;;;;;;;12.05;6.92;;;;;;;9.26;65.45;99547.74;4327528;80;21002;-79
2022/05/20 00:31:54;;;;;;;14.58;6.58;;;;;;;8.97;65.48;99539.39;4317984;81;21011;-79
2022/05/20 00:37:55;;;;;;;14.15;7.03;;;;;;;8.82;66.53;99538.02;4315216;80;21066;-79
2022/05/20 00:43:58;;;;;;;13.75;7.05;;;;;;;8.79;67.20;99538.71;4317420;80;21063;-79
2022/05/20 00:50:04;;;;;;;8.98;5.97;;;;;;;8.72;66.93;99544.00;4319631;81;21019;-79
2022/05/20 00:56:08;;;;;;;14.13;7.57;;;;;;;8.69;67.30;99537.28;4323607;81;20987;-79
2022/05/20 01:02:15;;;;;;;13.15;6.65;;;;;;;8.72;67.37;99524.30;4324478;80;21010;-79
2022/05/20 01:08:21;;;;;;;14.30;7.80;;;;;;;8.56;68.09;99528.15;4318320;81;20996;-79
2022/05/20 01:14:25;;;;;;;13.90;6.67;;;;;;;8.36;67.57;99518.23;4315203;81;21000;-79
2022/05/20 01:20:31;;;;;;;13.38;7.10;;;;;;;8.32;68.87;99520.06;4318141;81;20984;-79
2022/05/20 01:26:32;;;;;;;15.85;8.45;;;;;;;8.53;69.13;99524.20;4313720;81;21065;-79
2022/05/20 01:32:33;;;;;;;16.67;8.50;;;;;;;8.57;68.55;99525.07;4314217;80;21070;-79
2022/05/20 01:38:34;;;;;;;14.10;7.50;;;;;;;8.36;68.79;99519.05;4319012;80;21094;-79
2022/05/20 01:44:48;;;;;;;17.32;7.83;;;;;;;8.33;68.90;99512.13;4338124;80;22180;-80
2022/05/20 01:50:55;;;;;;;14.05;7.95;;;;;;;8.17;69.15;99514.77;4341012;81;20990;-79
2022/05/20 01:57:08;;;;;;;13.00;8.15;;;;;;;8.03;69.58;99506.95;4335225;80;21542;-79
2022/05/20 02:03:30;;;;;;;13.75;7.42;;;;;;;7.98;69.89;99500.95;4339416;80;21529;-79
2022/05/20 02:09:37;;;;;;;17.17;8.15;;;;;;;7.94;70.37;99511.75;4335712;80;21065;-80
2022/05/20 02:15:53;;;;;;;13.43;7.42;;;;;;;8.01;70.26;99509.80;4330455;80;21732;-79
2022/05/20 02:21:58;;;;;;;18.30;8.20;;;;;;;7.98;70.48;99513.22;4343714;80;20968;-79
2022/05/20 02:28:11;;;;;;;19.32;8.40;;;;;;;7.80;70.51;99508.61;4336385;80;21002;-79
2022/05/20 02:34:12;;;;;;;20.62;7.75;;;;;;;7.70;70.83;99517.27;4338204;80;21067;-80
2022/05/20 02:40:18;;;;;;;15.50;7.55;;;;;;;7.68;71.48;99515.45;4327288;80;21040;-79
2022/05/20 02:46:19;;;;;;;14.05;6.72;;;;;;;7.75;71.58;99493.08;4323312;80;21589;-79
2022/05/20 02:52:21;;;;;;;17.12;7.20;;;;;;;7.67;71.91;99495.36;4298736;80;21078;-79
2022/05/20 03:04:42;;;;;;;14.18;7.30;;;;;;;7.63;71.58;99492.52;4325513;81;21020;-79
2022/05/20 03:10:43;;;;;;;14.68;6.62;;;;;;;7.48;72.25;99496.52;4388583;80;40854;-79
2022/05/20 03:16:45;;;;;;;12.60;6.37;;;;;;;7.46;72.40;99490.60;4451114;79;21022;-79
2022/05/20 03:22:46;;;;;;;16.45;8.08;;;;;;;7.54;72.94;99487.77;4443430;78;21082;-79
2022/05/20 03:28:48;;;;;;;13.60;6.55;;;;;;;7.42;72.52;99477.45;4446577;78;21014;-80
2022/05/20 03:34:49;;;;;;;14.28;6.60;;;;;;;7.30;73.05;99493.78;4420532;79;21052;-79
2022/05/20 03:40:50;;;;;;;14.30;7.47;;;;;;;7.42;73.49;99493.21;4410946;80;21374;-79
2022/05/20 03:46:55;;;;;;;15.20;7.00;;;;;;;7.46;73.38;99491.97;4425505;79;21031;-79
2022/05/20 03:52:56;;;;;;;14.07;6.95;;;;;;;7.50;73.58;99470.51;4378260;79;21058;-79
2022/05/20 03:58:57;;;;;;;18.23;7.17;;;;;;;7.61;74.13;99465.41;4357117;80;21039;-79
2022/05/20 04:04:59;;;;;;;13.32;5.45;;;;;;;7.92;74.52;99479.17;4341762;80;21039;-79
2022/05/20 04:11:01;;;;;;;12.95;5.83;;;;;;;8.30;74.42;99489.04;4330483;80;20987;-80
2022/05/20 04:56:20;;;;;;;8.50;4.92;;;;;;;10.21;72.96;99480.23;4279431;81;21011;-86
2022/05/20 05:15:53;;;;;;;11.15;4.78;;;;;;;11.03;72.11;99471.77;4320178;81;21015;-87
2022/05/20 05:29:06;;;;;;;11.00;4.58;;;;;;;11.94;71.26;99470.44;4292898;81;21019;-87
2022/05/20 05:42:41;;;;;;;18.42;6.05;;;;;;;12.99;70.42;99481.80;4211359;83;21038;-86
2022/05/20 05:49:03;;;;;;;12.82;5.67;;;;;;;13.42;70.42;99481.00;4216908;81;21079;-87
2022/05/20 05:55:44;;;;;;;13.53;4.25;;;;;;;13.74;70.47;99488.89;4216858;82;21146;-86
2022/05/20 06:02:48;;;;;;;10.40;4.28;;;;;;;13.97;70.03;99483.11;3984230;87;21554;-88
2022/05/20 06:09:26;;;;;;;11.57;3.83;;;;;;;14.29;69.14;99486.84;3967757;89;21098;-86
2022/05/20 06:22:33;;;;;;;11.03;4.53;;;;;;;15.11;67.66;99506.55;4020634;82;21479;-86
2022/05/20 06:28:46;;;;;;;7.30;3.95;;;;;;;15.54;66.24;99511.70;4276573;81;22035;-87
2022/05/20 06:41:41;;;;;;;7.50;3.27;;;;;;;16.42;65.52;99494.11;4243705;81;21124;-87
2022/05/20 06:47:43;;;;;;;7.22;3.10;;;;;;;16.96;64.42;99499.00;4279526;81;22076;-87
2022/05/20 07:01:19;;;;;;;6.60;3.10;;;;;;;18.52;62.69;99491.58;4292147;81;21102;-87
2022/05/20 07:14:07;;;;;;;6.28;2.65;;;;;;;20.20;61.57;99498.57;4326092;81;21036;-87
2022/05/20 07:26:59;;;;;;;7.92;2.83;;;;;;;20.70;60.65;99498.95;4279538;81;21047;-87
2022/05/20 07:33:02;;;;;;;13.05;3.37;;;;;;;21.03;59.89;99508.34;4281640;82;22076;-86
2022/05/20 07:46:26;;;;;;;8.03;3.07;;;;;;;21.86;58.02;99506.74;4324177;81;20992;-87
2022/05/20 08:00:14;;;;;;;12.70;3.42;;;;;;;22.38;56.12;99519.83;4275623;81;21094;-87
2022/05/20 08:13:01;;;;;;;17.80;2.75;;;;;;;22.85;54.93;99522.86;4313186;81;20989;-85
2022/05/20 08:19:03;;;;;;;7.12;2.45;;;;;;;22.75;53.59;99510.81;4296703;81;21039;-89
2022/05/20 08:25:26;;;;;;;13.28;2.58;;;;;;;22.47;53.31;99519.98;4271411;81;21029;-86
2022/05/20 08:59:03;;;;;;;11.48;1.80;;;;;;;22.49;53.06;99504.96;4311178;81;22296;-86
2022/05/20 09:05:15;;;;;;;5.92;1.82;;;;;;;22.93;52.81;99504.67;4316787;81;21497;-85
2022/05/20 09:11:37;;;;;;;5.50;1.90;;;;;;;23.07;52.69;99495.25;4288263;81;21638;-86
2022/05/20 09:18:17;;;;;;;2.92;1.70;;;;;;;23.31;51.79;99494.93;4298806;81;21604;-86
2022/05/20 09:30:54;;;;;;;5.40;1.65;;;;;;;24.87;50.69;99484.16;4213068;83;21035;-86
2022/05/20 09:37:03;;;;;;;5.00;1.47;;;;;;;25.38;49.27;99474.73;4246948;83;21087;-87
2022/05/20 09:43:27;;;;;;;5.47;1.67;;;;;;;26.21;47.91;99464.55;4222843;82;21584;-84
2022/05/20 09:50:19;;;;;;;7.20;1.90;;;;;;;26.96;47.83;99450.83;4138698;84;21875;-87
2022/05/20 09:56:31;;;;;;;4.25;1.82;;;;;;;27.57;44.31;99452.41;4162593;84;21018;-87
2022/05/20 10:03:11;;;;;;;13.03;1.95;;;;;;;27.79;44.78;99445.68;4168118;84;21430;-88
2022/05/20 10:09:22;;;;;;;7.35;1.70;;;;;;;28.33;44.66;99439.63;4149444;84;21657;-88
2022/05/20 10:15:51;;;;;;;5.30;1.60;;;;;;;28.62;44.01;99417.11;4305185;80;21075;-88
2022/05/20 10:22:19;;;;;;;5.00;1.75;;;;;;;28.88;43.00;99409.58;4322946;81;21055;-86
2022/05/20 10:35:25;;;;;;;8.35;2.00;;;;;;;29.36;41.01;99400.20;4343587;81;20999;-86
2022/05/20 10:55:59;;;;;;;5.08;1.30;;;;;;;30.43;40.55;99382.71;4230473;83;21139;-86
2022/05/20 11:02:14;;;;;;;8.28;1.57;;;;;;;30.94;39.49;99386.09;4172835;83;21169;-87
2022/05/20 11:08:31;;;;;;;;;;;;;;;31.31;39.30;99381.20;4117375;84;21177;-86
2022/05/20 11:15:06;;;;;;;5.78;1.15;;;;;;;31.88;38.41;99383.14;4223985;81;20704;-86
2022/05/20 11:21:14;;;;;;;;;;;;;;;32.04;38.46;99380.22;4323659;81;21085;-88
2022/05/20 11:27:35;;;;;;;4.97;1.40;;;;;;;32.44;36.74;99366.39;4315075;81;20521;-89
2022/05/20 11:34:12;;;;;;;10.15;1.37;;;;;;;32.70;37.20;99361.22;4295481;81;21900;-87
2022/05/20 11:40:54;;;;;;;3.37;1.22;;;;;;;32.97;36.28;99341.23;4341396;79;21128;-88
2022/05/20 11:47:27;;;;;;;3.10;1.30;;;;;;;32.88;36.23;99337.27;4296171;80;21578;-88
2022/05/20 11:53:47;;;;;;;3.20;1.17;;;;;;;32.51;35.64;99326.86;4301183;81;21007;-87
2022/05/20 12:00:03;;;;;;;2.08;1.07;;;;;;;32.06;35.38;99327.45;4275996;80;21116;-87
2022/05/20 12:06:06;;;;;;;8.53;1.40;;;;;;;31.68;35.44;99320.39;4302043;81;21083;-87
2022/05/20 12:24:11;;;;;;;4.85;1.37;;;;;;;30.65;34.98;99321.39;4579133;75;22768;-89
2022/05/20 12:24:41;;;;;;;6.40;1.50;;;;;;;29.95;35.48;99328.86;4501078;77;21040;-86
2022/05/20 12:31:11;;;;;;;2.15;1.30;;;;;;;29.64;36.24;99311.87;4506044;77;21510;-84
2022/05/20 12:37:48;;;;;;;3.12;1.42;;;;;;;29.38;35.98;99304.61;4335358;80;21034;-84
2022/05/20 12:43:58;;;;;;;7.50;1.57;;;;;;;29.09;36.04;99306.94;4381461;80;21033;-86
2022/05/20 12:50:10;;;;;;;4.15;1.72;;;;;;;28.87;36.08;99298.94;4386175;79;21026;-85
2022/05/20 12:56:32;;;;;;;5.62;1.40;;;;;;;28.63;36.04;99289.88;4389967;79;20995;-87
2022/05/20 13:02:44;;;;;;;4.95;1.30;;;;;;;28.44;36.80;99274.45;4382342;79;21041;-85
2022/05/20 13:08:50;;;;;;;2.87;1.45;;;;;;;28.46;38.40;99273.33;4387314;79;21030;-84
2022/05/20 13:15:01;;;;;;;;;;;;;;;28.59;38.15;99267.41;4352702;79;21045;-84
2022/05/20 13:21:16;;;;;;;4.90;1.20;;;;;;;28.56;38.17;99253.69;4291403;82;20135;-86
2022/05/20 13:27:21;;;;;;;2.60;1.07;;;;;;;28.47;38.16;99248.78;4296948;82;21049;-87
2022/05/20 13:33:22;;;;;;;2.50;1.20;;;;;;;28.30;37.75;99249.16;4302835;81;21494;-85
2022/05/20 13:39:28;;;;;;;3.72;1.10;;;;;;;28.33;38.04;99239.08;4296122;81;21044;-85
2022/05/20 13:52:06;;;;;;;3.77;1.30;;;;;;;28.49;37.97;99234.98;4284166;82;20989;-86
2022/05/20 13:58:07;;;;;;;4.67;1.17;;;;;;;28.52;37.37;99224.94;4274078;82;21037;-86
2022/05/20 14:11:53;;;;;;;5.92;1.30;;;;;;;28.54;38.17;99216.78;4289718;82;21101;-84
2022/05/20 14:32:12;;;;;;;4.20;1.40;;;;;;;28.62;39.13;99200.23;3873877;88;21165;-84
2022/05/20 14:38:19;;;;;;;6.15;1.70;;;;;;;28.40;38.37;99189.42;3995182;87;21677;-83
2022/05/20 14:44:27;;;;;;;2.83;1.30;;;;;;;28.22;38.57;99184.68;4012011;87;21605;-82
2022/05/20 14:50:54;;;;;;;2.00;1.50;;;;;;;28.24;38.48;99179.31;4214754;83;21074;-84
2022/05/20 14:57:25;;;;;;;7.80;1.50;;;;;;;28.23;39.00;99174.34;4209200;83;21110;-83
2022/05/20 15:04:14;;;;;;;4.40;1.60;;;;;;;28.23;39.21;99160.89;4214645;81;21564;-83
2022/05/20 15:10:23;;;;;;;4.85;1.65;;;;;;;28.11;39.36;99143.70;4272722;83;21042;-83
2022/05/20 15:16:25;;;;;;;6.95;1.70;;;;;;;27.89;40.08;99149.00;4330949;80;21092;-82
2022/05/20 15:29:38;;;;;;;5.92;1.65;;;;;;;27.22;40.00;99129.54;4293133;80;21096;-83
2022/05/20 15:42:45;;;;;;;2.00;1.50;;;;;;;26.77;41.48;99120.76;4290330;80;20988;-84
2022/05/20 15:55:47;;;;;;;4.30;1.50;;;;;;;26.71;41.77;99122.06;4275033;81;21054;-84
2022/05/20 16:02:08;;;;;;;6.75;1.80;;;;;;;26.52;42.28;99105.19;4281111;79;21107;-83
2022/05/20 16:08:29;;;;;;;5.55;1.67;;;;;;;26.32;42.70;99103.63;4369429;80;21141;-84
2022/05/20 16:14:31;;;;;;;1.98;1.52;;;;;;;26.22;42.58;99092.95;4354433;80;21100;-84
2022/05/20 16:20:51;;;;;;;4.08;2.00;;;;;;;25.99;43.84;99087.44;4367094;80;21179;-83
2022/05/20 16:27:05;;;;;;;2.67;1.30;;;;;;;25.96;44.34;99079.36;4344229;80;21025;-83
2022/05/20 16:33:09;;;;;;;3.80;1.30;;;;;;;25.96;44.93;99067.35;4404955;79;21089;-82
2022/05/20 16:39:11;;;;;;;4.60;1.62;;;;;;;25.97;44.52;99064.07;4373393;79;21035;-83
2022/05/20 16:45:22;;;;;;;2.62;1.75;;;;;;;26.01;44.61;99057.67;4384293;79;21003;-83
2022/05/20 16:51:59;;;;;;;3.12;1.65;;;;;;;25.94;44.47;99051.00;4205567;83;21157;-84
2022/05/20 17:05:13;;;;;;;2.87;1.47;;;;;;;25.72;44.75;99028.70;4351131;80;21036;-84
2022/05/20 17:11:26;;;;;;;2.58;1.67;;;;;;;25.32;45.13;99011.44;4376489;80;20992;-83
2022/05/20 17:18:08;;;;;;;2.17;1.40;;;;;;;25.07;45.58;99019.63;4433101;77;21035;-83
2022/05/20 17:38:40;;;;;;;2.25;1.77;;;;;;;24.44;46.77;99000.91;4472227;77;21432;-84
2022/05/20 17:52:07;;;;;;;4.97;2.02;;;;;;;24.16;47.28;98999.37;4346012;82;21054;-85
2022/05/20 17:58:26;;;;;;;7.92;2.35;;;;;;;23.99;47.80;98994.54;4266102;82;20971;-83
2022/05/20 18:12:24;;;;;;;11.55;5.00;;;;;;;23.68;48.61;98998.03;4170086;82;22071;-83
2022/05/20 18:19:31;;;;;;;9.23;4.45;;;;;;;23.46;49.10;98986.18;4316836;80;21111;-83
2022/05/20 18:25:55;;;;;;;9.23;3.90;;;;;;;23.29;49.62;98984.25;4328107;80;21039;-83
2022/05/20 18:32:06;;;;;;;19.95;5.10;;;;;;;23.06;50.29;98990.34;4378173;79;21013;-84
2022/05/20 18:52:22;;;;;;;10.63;5.33;;;;;;;22.40;52.19;98955.98;4331067;81;21630;-83
2022/05/20 18:58:57;;;;;;;14.38;5.22;;;;;;;22.12;52.91;98948.65;4378350;78;21046;-83
2022/05/20 19:05:03;;;;;;;15.70;4.70;;;;;;;21.91;53.53;98941.82;4377441;80;20975;-83
2022/05/20 19:11:13;;;;;;;25.37;5.03;;;;;;;21.71;54.12;98930.16;4374749;81;20981;-83
2022/05/20 19:17:41;;;;;;;7.37;4.40;;;;;;;21.45;54.72;98923.91;4357897;81;21013;-84
2022/05/20 19:24:08;;;;;;;8.63;3.80;;;;;;;21.30;55.19;98908.09;4410915;79;20995;-82
2022/05/20 19:30:30;;;;;;;6.35;3.45;;;;;;;21.10;55.84;98901.41;4415585;80;20992;-83
2022/05/20 19:44:05;;;;;;;6.60;4.00;;;;;;;20.85;57.16;98874.96;4423731;80;21363;-83
2022/05/20 20:04:24;;;;;;;6.97;4.33;;;;;;;20.35;58.58;98834.63;4470591;78;21010;-84
2022/05/20 20:10:29;;;;;;;6.85;4.03;;;;;;;20.20;59.20;98833.52;4460198;77;20979;-83
2022/05/20 20:16:43;;;;;;;14.00;6.35;;;;;;;20.00;59.75;98841.20;4451513;78;21026;-83
2022/05/20 20:29:49;;;;;;;11.28;5.28;;;;;;;19.74;61.08;98814.00;4465534;77;22315;-82
2022/05/20 20:36:29;;;;;;;10.55;6.15;;;;;;;19.71;61.54;98812.70;4467892;77;20984;-83
2022/05/20 20:43:11;;;;;;;15.32;6.83;;;;;;;19.57;61.95;98805.56;4461022;77;21023;-83
2022/05/20 20:49:50;;;;;;;13.13;6.75;;;;;;;19.38;62.65;98813.42;4478118;77;21035;-82
2022/05/20 20:56:18;;;;;;;13.70;6.80;;;;;;;19.24;63.30;98816.55;4474747;77;21556;-83
2022/05/20 21:02:26;;;;;;;10.63;6.60;;;;;;;19.12;63.79;98804.75;4466440;77;20984;-82
2022/05/20 21:08:53;;;;;;;16.50;9.15;;;;;;;19.02;64.38;98803.05;4489984;79;21023;-82
2022/05/20 21:15:11;;;;;;;258.90;100.42;;;;;;;18.94;64.73;98805.83;4493023;77;21048;-82
2022/05/20 21:21:20;;;;;;;102.10;40.52;;;;;;;18.75;64.98;98801.16;4339914;81;20980;-83
2022/05/20 21:47:54;;;;;;;85.77;34.10;;;;;;;18.26;66.52;98764.91;4203016;82;21189;-82
2022/05/20 21:54:02;;;;;;;189.90;66.37;;;;;;;18.27;66.67;98752.61;4306855;80;21031;-83
2022/05/20 22:14:07;;;;;;;37.42;14.35;;;;;;;18.39;66.78;98722.84;4283269;80;21041;-82
2022/05/20 22:20:17;;;;;;;66.00;25.43;;;;;;;18.57;66.67;98715.65;4305940;80;21063;-83
2022/05/20 22:26:26;;;;;;;33.85;13.18;;;;;;;18.58;66.62;98690.89;4292386;80;20993;-83
2022/05/20 22:39:08;;;;;;;7.28;4.35;;;;;;;18.63;66.60;98668.19;4211480;82;21048;-82
2022/05/20 22:52:42;;;;;;;6.00;3.40;;;;;;;18.94;66.33;98664.97;4087792;85;21065;-82
2022/05/20 22:59:06;;;;;;;11.43;6.33;;;;;;;19.46;65.44;98632.18;4120229;85;21099;-83
2022/05/20 23:05:18;;;;;;;11.40;6.42;;;;;;;19.72;65.13;98630.36;4259131;82;21071;-83
2022/05/20 23:18:47;;;;;;;6.67;3.75;;;;;;;19.80;64.56;98609.48;4216161;83;21015;-83
2022/05/20 23:25:12;;;;;;;7.67;3.80;;;;;;;19.70;64.42;98629.27;4225668;83;21036;-83
2022/05/20 23:31:22;;;;;;;5.50;3.52;;;;;;;19.54;64.64;98676.55;4302074;82;21124;-82
2022/05/20 23:37:36;;;;;;;16.73;3.80;;;;;;;19.41;65.13;98652.94;4310923;80;21004;-82
2022/05/20 23:50:22;;;;;;;7.70;3.50;;;;;;;19.66;65.91;98648.02;4468976;77;21014;-82
